sensor_id;sensor_type;location;lat;lon;timestamp;P1;durP1;ratioP1;P2;durP2;ratioP2
32505;SDS011;18955;51.224;8.482;2023-05-10T03:41:42;1.38;;;0.20;;
32505;SDS011;18955;51.224;8.482;2023-05-10T03:44:08;0.45;;;0.30;;
32505;SDS011;18955;51.224;8.482;2023-05-10T03:46:35;0.30;;;0.30;;
32505;SDS011;18955;51.224;8.482;2023-05-10T03:49:02;1.58;;;0.22;;
32505;SDS011;18955;51.224;8.482;2023-05-10T03:51:28;0.47;;;0.40;;
32505;SDS011;18955;51.224;8.482;2023-05-10T03:53:54;1.42;;;0.30;;
32505;SDS011;18955;51.224;8.482;2023-05-10T03:56:21;0.50;;;0.38;;
32505;SDS011;18955;51.224;8.482;2023-05-10T03:58:47;8.25;;;0.70;;
32505;SDS011;18955;51.224;8.482;2023-05-10T04:01:14;0.60;;;0.60;;
32505;SDS011;18955;51.224;8.482;2023-05-10T04:03:40;3.20;;;0.77;;
32505;SDS011;18955;51.224;8.482;2023-05-10T04:06:06;0.82;;;0.30;;
32505;SDS011;18955;51.224;8.482;2023-05-10T04:08:34;3.85;;;0.55;;
32505;SDS011;18955;51.224;8.482;2023-05-10T04:11:04;5.13;;;0.85;;
32505;SDS011;18955;51.224;8.482;2023-05-10T04:13:32;0.65;;;0.60;;
32505;SDS011;18955;51.224;8.482;2023-05-10T04:15:58;4.07;;;0.60;;
32505;SDS011;18955;51.224;8.482;2023-05-10T04:18:25;0.95;;;0.47;;
32505;SDS011;18955;51.224;8.482;2023-05-10T04:20:51;7.38;;;0.88;;
32505;SDS011;18955;51.224;8.482;2023-05-10T04:23:17;1.05;;;0.63;;
32505;SDS011;18955;51.224;8.482;2023-05-10T04:25:43;4.95;;;0.77;;
32505;SDS011;18955;51.224;8.482;2023-05-10T04:28:10;2.00;;;0.57;;
32505;SDS011;18955;51.224;8.482;2023-05-10T04:30:36;4.15;;;0.60;;
32505;SDS011;18955;51.224;8.482;2023-05-10T04:33:02;1.50;;;0.90;;
32505;SDS011;18955;51.224;8.482;2023-05-10T04:35:29;7.60;;;0.60;;
32505;SDS011;18955;51.224;8.482;2023-05-10T04:37:55;4.10;;;1.00;;
32505;SDS011;18955;51.224;8.482;2023-05-10T04:40:22;0.50;;;0.50;;
32505;SDS011;18955;51.224;8.482;2023-05-10T04:42:48;0.80;;;0.80;;
32505;SDS011;18955;51.224;8.482;2023-05-10T04:45:14;0.50;;;0.50;;
32505;SDS011;18955;51.224;8.482;2023-05-10T04:47:41;1.00;;;0.50;;
32505;SDS011;18955;51.224;8.482;2023-05-10T04:50:07;0.70;;;0.70;;
32505;SDS011;18955;51.224;8.482;2023-05-10T04:52:33;4.60;;;0.82;;
32505;SDS011;18955;51.224;8.482;2023-05-10T04:54:59;1.15;;;0.70;;
32505;SDS011;18955;51.224;8.482;2023-05-10T04:57:26;0.50;;;0.50;;
32505;SDS011;18955;51.224;8.482;2023-05-10T04:59:52;0.77;;;0.40;;
32505;SDS011;18955;51.224;8.482;2023-05-10T05:02:18;1.20;;;0.50;;
32505;SDS011;18955;51.224;8.482;2023-05-10T05:04:44;3.60;;;0.77;;
32505;SDS011;18955;51.224;8.482;2023-05-10T05:07:10;1.13;;;0.80;;
32505;SDS011;18955;51.224;8.482;2023-05-10T05:09:37;0.60;;;0.60;;
32505;SDS011;18955;51.224;8.482;2023-05-10T05:12:03;2.03;;;0.63;;
32505;SDS011;18955;51.224;8.482;2023-05-10T05:14:29;0.70;;;0.70;;
32505;SDS011;18955;51.224;8.482;2023-05-10T05:16:56;2.03;;;0.70;;
32505;SDS011;18955;51.224;8.482;2023-05-10T05:19:22;1.90;;;0.70;;
32505;SDS011;18955;51.224;8.482;2023-05-10T05:21:49;0.90;;;0.90;;
32505;SDS011;18955;51.224;8.482;2023-05-10T05:24:15;0.52;;;0.52;;
32505;SDS011;18955;51.224;8.482;2023-05-10T05:26:41;1.25;;;0.70;;
32505;SDS011;18955;51.224;8.482;2023-05-10T05:29:07;0.60;;;0.60;;
32505;SDS011;18955;51.224;8.482;2023-05-10T05:31:34;2.20;;;0.63;;
32505;SDS011;18955;51.224;8.482;2023-05-10T05:34:00;2.63;;;0.68;;
32505;SDS011;18955;51.224;8.482;2023-05-10T05:36:26;1.65;;;0.70;;
32505;SDS011;18955;51.224;8.482;2023-05-10T05:38:52;13.30;;;1.05;;
32505;SDS011;18955;51.224;8.482;2023-05-10T05:41:18;1.55;;;0.80;;
32505;SDS011;18955;51.224;8.482;2023-05-10T05:43:45;0.70;;;0.70;;
32505;SDS011;18955;51.224;8.482;2023-05-10T05:46:11;0.60;;;0.60;;
32505;SDS011;18955;51.224;8.482;2023-05-10T05:48:37;5.88;;;0.93;;
32505;SDS011;18955;51.224;8.482;2023-05-10T05:51:03;8.05;;;1.55;;
32505;SDS011;18955;51.224;8.482;2023-05-10T05:53:30;0.60;;;0.52;;
32505;SDS011;18955;51.224;8.482;2023-05-10T05:55:57;2.58;;;0.55;;
32505;SDS011;18955;51.224;8.482;2023-05-10T05:58:24;2.22;;;1.58;;
32505;SDS011;18955;51.224;8.482;2023-05-10T06:00:51;4.15;;;1.58;;
32505;SDS011;18955;51.224;8.482;2023-05-10T06:03:18;11.20;;;2.03;;
32505;SDS011;18955;51.224;8.482;2023-05-10T06:05:44;2.22;;;1.77;;
32505;SDS011;18955;51.224;8.482;2023-05-10T06:08:11;3.90;;;1.65;;
32505;SDS011;18955;51.224;8.482;2023-05-10T06:10:37;1.52;;;1.38;;
32505;SDS011;18955;51.224;8.482;2023-05-10T06:13:03;1.55;;;1.45;;
32505;SDS011;18955;51.224;8.482;2023-05-10T06:15:30;2.63;;;1.77;;
32505;SDS011;18955;51.224;8.482;2023-05-10T06:17:56;2.25;;;1.77;;
32505;SDS011;18955;51.224;8.482;2023-05-10T06:20:22;1.58;;;1.33;;
32505;SDS011;18955;51.224;8.482;2023-05-10T06:22:48;2.75;;;1.40;;
32505;SDS011;18955;51.224;8.482;2023-05-10T06:25:14;2.75;;;1.63;;
32505;SDS011;18955;51.224;8.482;2023-05-10T06:27:43;4.18;;;2.20;;
32505;SDS011;18955;51.224;8.482;2023-05-10T06:30:10;2.90;;;1.60;;
32505;SDS011;18955;51.224;8.482;2023-05-10T06:32:38;2.35;;;1.60;;
32505;SDS011;18955;51.224;8.482;2023-05-10T06:35:05;5.85;;;2.05;;
32505;SDS011;18955;51.224;8.482;2023-05-10T06:37:32;4.45;;;1.77;;
32505;SDS011;18955;51.224;8.482;2023-05-10T06:39:58;6.20;;;1.60;;
32505;SDS011;18955;51.224;8.482;2023-05-10T06:42:24;3.40;;;1.45;;
32505;SDS011;18955;51.224;8.482;2023-05-10T06:44:51;2.30;;;2.10;;
32505;SDS011;18955;51.224;8.482;2023-05-10T06:47:17;1.73;;;1.63;;
32505;SDS011;18955;51.224;8.482;2023-05-10T06:49:44;4.50;;;2.40;;
32505;SDS011;18955;51.224;8.482;2023-05-10T06:52:10;2.20;;;1.98;;
32505;SDS011;18955;51.224;8.482;2023-05-10T06:54:36;1.58;;;1.48;;
32505;SDS011;18955;51.224;8.482;2023-05-10T06:57:02;3.92;;;1.60;;
32505;SDS011;18955;51.224;8.482;2023-05-10T06:59:29;3.15;;;2.10;;
32505;SDS011;18955;51.224;8.482;2023-05-10T07:01:55;3.42;;;1.35;;
32505;SDS011;18955;51.224;8.482;2023-05-10T07:04:22;2.05;;;1.45;;
32505;SDS011;18955;51.224;8.482;2023-05-10T07:06:48;1.17;;;1.08;;
32505;SDS011;18955;51.224;8.482;2023-05-10T07:09:15;5.75;;;1.92;;
32505;SDS011;18955;51.224;8.482;2023-05-10T07:11:41;5.47;;;1.85;;
32505;SDS011;18955;51.224;8.482;2023-05-10T07:14:07;2.45;;;2.08;;
32505;SDS011;18955;51.224;8.482;2023-05-10T07:16:34;5.15;;;2.00;;
32505;SDS011;18955;51.224;8.482;2023-05-10T07:19:00;7.15;;;1.60;;
32505;SDS011;18955;51.224;8.482;2023-05-10T07:21:27;3.70;;;1.85;;
32505;SDS011;18955;51.224;8.482;2023-05-10T07:23:54;3.25;;;2.05;;
32505;SDS011;18955;51.224;8.482;2023-05-10T07:26:20;7.20;;;2.30;;
32505;SDS011;18955;51.224;8.482;2023-05-10T07:28:47;3.20;;;1.85;;
32505;SDS011;18955;51.224;8.482;2023-05-10T07:31:13;4.47;;;2.05;;
32505;SDS011;18955;51.224;8.482;2023-05-10T07:33:39;3.08;;;2.13;;
32505;SDS011;18955;51.224;8.482;2023-05-10T07:36:06;4.88;;;2.22;;
32505;SDS011;18955;51.224;8.482;2023-05-10T07:38:32;7.57;;;2.92;;
32505;SDS011;18955;51.224;8.482;2023-05-10T07:40:58;6.97;;;3.10;;
32505;SDS011;18955;51.224;8.482;2023-05-10T07:43:25;5.10;;;2.60;;
32505;SDS011;18955;51.224;8.482;2023-05-10T07:45:51;9.02;;;3.35;;
32505;SDS011;18955;51.224;8.482;2023-05-10T07:48:17;5.40;;;3.38;;
32505;SDS011;18955;51.224;8.482;2023-05-10T07:50:43;6.55;;;3.90;;
32505;SDS011;18955;51.224;8.482;2023-05-10T07:53:09;6.78;;;4.38;;
32505;SDS011;18955;51.224;8.482;2023-05-10T07:55:36;4.88;;;3.35;;
32505;SDS011;18955;51.224;8.482;2023-05-10T07:58:02;5.13;;;4.00;;
32505;SDS011;18955;51.224;8.482;2023-05-10T08:00:28;12.55;;;5.70;;
32505;SDS011;18955;51.224;8.482;2023-05-10T08:02:54;15.10;;;5.18;;
32505;SDS011;18955;51.224;8.482;2023-05-10T08:05:21;5.95;;;4.28;;
32505;SDS011;18955;51.224;8.482;2023-05-10T08:07:47;8.30;;;5.38;;
32505;SDS011;18955;51.224;8.482;2023-05-10T08:10:14;9.10;;;4.22;;
32505;SDS011;18955;51.224;8.482;2023-05-10T08:12:40;6.43;;;3.97;;
32505;SDS011;18955;51.224;8.482;2023-05-10T08:15:06;18.15;;;6.75;;
32505;SDS011;18955;51.224;8.482;2023-05-10T08:17:33;10.80;;;6.20;;
32505;SDS011;18955;51.224;8.482;2023-05-10T08:20:00;12.52;;;5.90;;
32505;SDS011;18955;51.224;8.482;2023-05-10T08:22:26;8.20;;;4.57;;
32505;SDS011;18955;51.224;8.482;2023-05-10T08:24:52;14.65;;;6.40;;
32505;SDS011;18955;51.224;8.482;2023-05-10T08:27:19;15.88;;;7.18;;
32505;SDS011;18955;51.224;8.482;2023-05-10T08:29:45;14.40;;;5.93;;
32505;SDS011;18955;51.224;8.482;2023-05-10T08:32:11;10.65;;;4.32;;
32505;SDS011;18955;51.224;8.482;2023-05-10T08:34:37;14.02;;;6.85;;
32505;SDS011;18955;51.224;8.482;2023-05-10T08:37:03;10.68;;;5.10;;
32505;SDS011;18955;51.224;8.482;2023-05-10T08:39:33;13.40;;;6.93;;
32505;SDS011;18955;51.224;8.482;2023-05-10T08:42:01;10.77;;;6.15;;
32505;SDS011;18955;51.224;8.482;2023-05-10T08:44:30;13.90;;;6.72;;
32505;SDS011;18955;51.224;8.482;2023-05-10T08:46:59;16.73;;;6.45;;
32505;SDS011;18955;51.224;8.482;2023-05-10T08:49:30;12.65;;;6.65;;
32505;SDS011;18955;51.224;8.482;2023-05-10T08:51:58;16.17;;;6.82;;
32505;SDS011;18955;51.224;8.482;2023-05-10T08:54:29;11.63;;;6.28;;
32505;SDS011;18955;51.224;8.482;2023-05-10T08:56:57;12.60;;;7.38;;
32505;SDS011;18955;51.224;8.482;2023-05-10T08:59:23;16.20;;;6.55;;
32505;SDS011;18955;51.224;8.482;2023-05-10T09:01:49;15.10;;;6.07;;
32505;SDS011;18955;51.224;8.482;2023-05-10T09:04:16;9.50;;;6.20;;
32505;SDS011;18955;51.224;8.482;2023-05-10T09:06:43;9.32;;;5.22;;
32505;SDS011;18955;51.224;8.482;2023-05-10T09:09:09;5.68;;;4.10;;
32505;SDS011;18955;51.224;8.482;2023-05-10T09:11:36;8.77;;;4.70;;
32505;SDS011;18955;51.224;8.482;2023-05-10T09:14:02;10.40;;;5.82;;
32505;SDS011;18955;51.224;8.482;2023-05-10T09:16:28;10.05;;;5.13;;
32505;SDS011;18955;51.224;8.482;2023-05-10T09:18:55;9.68;;;5.00;;
32505;SDS011;18955;51.224;8.482;2023-05-10T09:21:21;8.02;;;4.75;;
32505;SDS011;18955;51.224;8.482;2023-05-10T09:23:48;9.10;;;4.88;;
32505;SDS011;18955;51.224;8.482;2023-05-10T09:26:15;6.95;;;5.25;;
32505;SDS011;18955;51.224;8.482;2023-05-10T09:31:21;10.32;;;4.40;;
32505;SDS011;18955;51.224;8.482;2023-05-10T09:36:14;14.38;;;4.45;;
32505;SDS011;18955;51.224;8.482;2023-05-10T09:41:44;5.15;;;4.13;;
32505;SDS011;18955;51.224;8.482;2023-05-10T09:44:03;6.38;;;4.70;;
32505;SDS011;18955;51.224;8.482;2023-05-10T09:46:29;10.25;;;5.20;;
32505;SDS011;18955;51.224;8.482;2023-05-10T09:49:01;8.70;;;4.80;;
32505;SDS011;18955;51.224;8.482;2023-05-10T09:51:27;9.75;;;4.93;;
32505;SDS011;18955;51.224;8.482;2023-05-10T09:56:36;8.65;;;4.45;;
32505;SDS011;18955;51.224;8.482;2023-05-10T09:59:04;7.65;;;4.78;;
32505;SDS011;18955;51.224;8.482;2023-05-10T10:01:31;12.40;;;5.07;;
32505;SDS011;18955;51.224;8.482;2023-05-10T10:03:59;6.40;;;4.82;;
32505;SDS011;18955;51.224;8.482;2023-05-10T10:06:27;10.48;;;5.00;;
32505;SDS011;18955;51.224;8.482;2023-05-10T10:08:53;10.23;;;5.20;;
32505;SDS011;18955;51.224;8.482;2023-05-10T10:11:20;9.30;;;5.18;;
32505;SDS011;18955;51.224;8.482;2023-05-10T10:13:46;10.43;;;5.55;;
32505;SDS011;18955;51.224;8.482;2023-05-10T10:16:13;7.78;;;4.63;;
32505;SDS011;18955;51.224;8.482;2023-05-10T10:18:39;7.65;;;5.53;;
32505;SDS011;18955;51.224;8.482;2023-05-10T10:23:34;9.25;;;5.50;;
32505;SDS011;18955;51.224;8.482;2023-05-10T10:26:02;10.90;;;5.35;;
32505;SDS011;18955;51.224;8.482;2023-05-10T10:28:39;13.13;;;6.50;;
32505;SDS011;18955;51.224;8.482;2023-05-10T10:34:10;8.95;;;5.68;;
32505;SDS011;18955;51.224;8.482;2023-05-10T10:39:19;14.68;;;6.05;;
32505;SDS011;18955;51.224;8.482;2023-05-10T10:41:50;9.50;;;5.75;;
32505;SDS011;18955;51.224;8.482;2023-05-10T10:49:49;8.48;;;5.93;;
32505;SDS011;18955;51.224;8.482;2023-05-10T10:52:38;12.65;;;5.35;;
32505;SDS011;18955;51.224;8.482;2023-05-10T10:57:48;9.82;;;4.82;;
32505;SDS011;18955;51.224;8.482;2023-05-10T11:02:51;13.88;;;5.22;;
32505;SDS011;18955;51.224;8.482;2023-05-10T11:08:14;9.05;;;4.40;;
32505;SDS011;18955;51.224;8.482;2023-05-10T11:10:52;6.25;;;3.53;;
32505;SDS011;18955;51.224;8.482;2023-05-10T11:21:32;4.97;;;3.67;;
32505;SDS011;18955;51.224;8.482;2023-05-10T11:23:59;5.78;;;4.13;;
32505;SDS011;18955;51.224;8.482;2023-05-10T11:26:32;6.10;;;3.80;;
32505;SDS011;18955;51.224;8.482;2023-05-10T11:29:00;9.35;;;4.03;;
32505;SDS011;18955;51.224;8.482;2023-05-10T11:31:28;16.23;;;4.85;;
32505;SDS011;18955;51.224;8.482;2023-05-10T11:33:55;10.73;;;5.15;;
32505;SDS011;18955;51.224;8.482;2023-05-10T11:36:24;11.32;;;4.63;;
32505;SDS011;18955;51.224;8.482;2023-05-10T11:38:55;11.00;;;4.30;;
32505;SDS011;18955;51.224;8.482;2023-05-10T11:41:22;12.63;;;6.47;;
32505;SDS011;18955;51.224;8.482;2023-05-10T11:43:50;14.00;;;6.28;;
32505;SDS011;18955;51.224;8.482;2023-05-10T11:46:22;12.30;;;7.38;;
32505;SDS011;18955;51.224;8.482;2023-05-10T11:48:49;12.45;;;6.78;;
32505;SDS011;18955;51.224;8.482;2023-05-10T11:51:20;9.18;;;6.72;;
32505;SDS011;18955;51.224;8.482;2023-05-10T11:53:48;10.25;;;6.35;;
32505;SDS011;18955;51.224;8.482;2023-05-10T11:56:16;9.38;;;5.20;;
32505;SDS011;18955;51.224;8.482;2023-05-10T11:58:42;12.15;;;5.97;;
32505;SDS011;18955;51.224;8.482;2023-05-10T12:01:08;10.75;;;5.43;;
32505;SDS011;18955;51.224;8.482;2023-05-10T12:03:35;9.68;;;5.30;;
32505;SDS011;18955;51.224;8.482;2023-05-10T12:06:03;11.23;;;5.95;;
32505;SDS011;18955;51.224;8.482;2023-05-10T12:08:30;8.15;;;5.60;;
32505;SDS011;18955;51.224;8.482;2023-05-10T12:11:06;8.30;;;6.30;;
32505;SDS011;18955;51.224;8.482;2023-05-10T12:13:40;12.45;;;6.53;;
32505;SDS011;18955;51.224;8.482;2023-05-10T12:18:41;11.10;;;6.60;;
32505;SDS011;18955;51.224;8.482;2023-05-10T12:21:11;9.75;;;6.32;;
32505;SDS011;18955;51.224;8.482;2023-05-10T12:23:38;11.50;;;7.03;;
32505;SDS011;18955;51.224;8.482;2023-05-10T12:26:05;8.70;;;6.03;;
32505;SDS011;18955;51.224;8.482;2023-05-10T12:28:32;11.40;;;5.88;;
32505;SDS011;18955;51.224;8.482;2023-05-10T12:30:59;8.57;;;5.35;;
32505;SDS011;18955;51.224;8.482;2023-05-10T12:35:52;10.98;;;6.15;;
32505;SDS011;18955;51.224;8.482;2023-05-10T12:38:34;9.00;;;5.70;;
32505;SDS011;18955;51.224;8.482;2023-05-10T12:41:09;6.85;;;5.50;;
32505;SDS011;18955;51.224;8.482;2023-05-10T12:43:36;7.40;;;4.97;;
32505;SDS011;18955;51.224;8.482;2023-05-10T12:46:13;12.63;;;6.03;;
32505;SDS011;18955;51.224;8.482;2023-05-10T12:48:41;15.18;;;8.20;;
32505;SDS011;18955;51.224;8.482;2023-05-10T12:51:08;13.00;;;6.93;;
32505;SDS011;18955;51.224;8.482;2023-05-10T12:53:37;10.77;;;6.65;;
32505;SDS011;18955;51.224;8.482;2023-05-10T12:56:04;9.40;;;6.13;;
32505;SDS011;18955;51.224;8.482;2023-05-10T13:00:57;12.30;;;6.60;;
32505;SDS011;18955;51.224;8.482;2023-05-10T13:03:24;12.68;;;5.22;;
32505;SDS011;18955;51.224;8.482;2023-05-10T13:05:51;7.45;;;5.30;;
32505;SDS011;18955;51.224;8.482;2023-05-10T13:08:17;12.80;;;5.55;;
32505;SDS011;18955;51.224;8.482;2023-05-10T13:10:43;8.90;;;6.20;;
32505;SDS011;18955;51.224;8.482;2023-05-10T13:13:10;13.07;;;7.53;;
32505;SDS011;18955;51.224;8.482;2023-05-10T13:15:36;9.93;;;7.30;;
32505;SDS011;18955;51.224;8.482;2023-05-10T13:18:02;14.77;;;7.10;;
32505;SDS011;18955;51.224;8.482;2023-05-10T13:20:28;15.40;;;7.70;;
32505;SDS011;18955;51.224;8.482;2023-05-10T13:22:55;7.88;;;5.45;;
32505;SDS011;18955;51.224;8.482;2023-05-10T13:25:21;13.57;;;7.53;;
32505;SDS011;18955;51.224;8.482;2023-05-10T13:27:47;9.88;;;7.00;;
32505;SDS011;18955;51.224;8.482;2023-05-10T13:30:13;11.63;;;7.65;;
32505;SDS011;18955;51.224;8.482;2023-05-10T13:32:40;11.32;;;6.65;;
32505;SDS011;18955;51.224;8.482;2023-05-10T13:35:06;10.73;;;4.72;;
32505;SDS011;18955;51.224;8.482;2023-05-10T13:37:33;5.88;;;4.55;;
32505;SDS011;18955;51.224;8.482;2023-05-10T13:40:02;4.93;;;3.50;;
32505;SDS011;18955;51.224;8.482;2023-05-10T13:42:29;8.82;;;3.85;;
32505;SDS011;18955;51.224;8.482;2023-05-10T13:44:57;6.43;;;3.03;;
32505;SDS011;18955;51.224;8.482;2023-05-10T13:47:23;3.50;;;2.42;;
32505;SDS011;18955;51.224;8.482;2023-05-10T13:49:49;5.63;;;3.17;;
32505;SDS011;18955;51.224;8.482;2023-05-10T13:52:16;5.45;;;3.40;;
32505;SDS011;18955;51.224;8.482;2023-05-10T13:54:42;7.38;;;3.53;;
32505;SDS011;18955;51.224;8.482;2023-05-10T13:57:08;3.17;;;2.63;;
32505;SDS011;18955;51.224;8.482;2023-05-10T13:59:34;5.15;;;3.88;;
32505;SDS011;18955;51.224;8.482;2023-05-10T14:02:01;5.47;;;2.78;;
32505;SDS011;18955;51.224;8.482;2023-05-10T14:04:30;5.93;;;3.58;;
32505;SDS011;18955;51.224;8.482;2023-05-10T14:09:23;4.70;;;3.17;;
32505;SDS011;18955;51.224;8.482;2023-05-10T14:11:49;5.82;;;4.72;;
32505;SDS011;18955;51.224;8.482;2023-05-10T14:14:15;7.82;;;4.70;;
32505;SDS011;18955;51.224;8.482;2023-05-10T14:16:43;5.15;;;4.28;;
32505;SDS011;18955;51.224;8.482;2023-05-10T14:19:10;14.93;;;5.35;;
32505;SDS011;18955;51.224;8.482;2023-05-10T14:24:02;14.98;;;5.20;;
32505;SDS011;18955;51.224;8.482;2023-05-10T14:26:30;8.75;;;5.60;;
32505;SDS011;18955;51.224;8.482;2023-05-10T14:31:22;6.55;;;4.85;;
32505;SDS011;18955;51.224;8.482;2023-05-10T14:33:50;7.72;;;5.43;;
32505;SDS011;18955;51.224;8.482;2023-05-10T14:36:17;10.80;;;7.07;;
32505;SDS011;18955;51.224;8.482;2023-05-10T14:38:43;9.75;;;6.60;;
32505;SDS011;18955;51.224;8.482;2023-05-10T14:41:10;8.35;;;4.45;;
32505;SDS011;18955;51.224;8.482;2023-05-10T14:43:39;9.25;;;6.50;;
32505;SDS011;18955;51.224;8.482;2023-05-10T14:46:06;13.40;;;7.63;;
32505;SDS011;18955;51.224;8.482;2023-05-10T14:48:32;11.80;;;6.93;;
32505;SDS011;18955;51.224;8.482;2023-05-10T14:50:59;6.20;;;4.40;;
32505;SDS011;18955;51.224;8.482;2023-05-10T14:53:25;6.10;;;4.63;;
32505;SDS011;18955;51.224;8.482;2023-05-10T14:55:51;8.63;;;5.40;;
32505;SDS011;18955;51.224;8.482;2023-05-10T14:58:17;9.05;;;5.45;;
32505;SDS011;18955;51.224;8.482;2023-05-10T15:00:44;11.68;;;7.28;;
32505;SDS011;18955;51.224;8.482;2023-05-10T15:03:10;15.25;;;7.00;;
32505;SDS011;18955;51.224;8.482;2023-05-10T15:05:36;16.25;;;7.22;;
32505;SDS011;18955;51.224;8.482;2023-05-10T15:08:03;12.73;;;7.82;;
32505;SDS011;18955;51.224;8.482;2023-05-10T15:10:31;19.52;;;8.60;;
32505;SDS011;18955;51.224;8.482;2023-05-10T15:12:58;13.60;;;8.23;;
32505;SDS011;18955;51.224;8.482;2023-05-10T15:15:27;11.68;;;7.32;;
32505;SDS011;18955;51.224;8.482;2023-05-10T15:17:54;12.95;;;8.40;;
32505;SDS011;18955;51.224;8.482;2023-05-10T15:20:20;12.82;;;9.13;;
32505;SDS011;18955;51.224;8.482;2023-05-10T15:22:46;12.90;;;8.10;;
32505;SDS011;18955;51.224;8.482;2023-05-10T15:25:12;14.07;;;8.70;;
32505;SDS011;18955;51.224;8.482;2023-05-10T15:27:39;11.57;;;8.27;;
32505;SDS011;18955;51.224;8.482;2023-05-10T15:30:06;14.60;;;8.15;;
32505;SDS011;18955;51.224;8.482;2023-05-10T15:34:58;13.18;;;7.45;;
32505;SDS011;18955;51.224;8.482;2023-05-10T15:37:25;9.13;;;5.30;;
32505;SDS011;18955;51.224;8.482;2023-05-10T15:39:51;11.70;;;8.35;;
32505;SDS011;18955;51.224;8.482;2023-05-10T15:42:17;12.32;;;7.90;;
32505;SDS011;18955;51.224;8.482;2023-05-10T15:44:44;14.27;;;7.45;;
32505;SDS011;18955;51.224;8.482;2023-05-10T15:47:10;12.93;;;7.75;;
32505;SDS011;18955;51.224;8.482;2023-05-10T15:49:37;13.68;;;7.53;;
32505;SDS011;18955;51.224;8.482;2023-05-10T15:52:03;10.43;;;7.28;;
32505;SDS011;18955;51.224;8.482;2023-05-10T15:54:29;13.55;;;7.03;;
32505;SDS011;18955;51.224;8.482;2023-05-10T15:56:56;17.45;;;7.72;;
32505;SDS011;18955;51.224;8.482;2023-05-10T15:59:22;15.05;;;8.00;;
32505;SDS011;18955;51.224;8.482;2023-05-10T16:01:48;13.90;;;9.20;;
32505;SDS011;18955;51.224;8.482;2023-05-10T16:06:41;18.38;;;9.20;;
32505;SDS011;18955;51.224;8.482;2023-05-10T16:09:07;13.10;;;9.13;;
32505;SDS011;18955;51.224;8.482;2023-05-10T16:11:35;16.10;;;9.50;;
32505;SDS011;18955;51.224;8.482;2023-05-10T16:14:01;17.45;;;9.88;;
32505;SDS011;18955;51.224;8.482;2023-05-10T16:16:27;12.48;;;6.82;;
32505;SDS011;18955;51.224;8.482;2023-05-10T16:18:53;14.40;;;9.80;;
32505;SDS011;18955;51.224;8.482;2023-05-10T16:21:20;15.35;;;9.20;;
32505;SDS011;18955;51.224;8.482;2023-05-10T16:26:13;18.95;;;10.82;;
32505;SDS011;18955;51.224;8.482;2023-05-10T16:28:39;11.82;;;7.63;;
32505;SDS011;18955;51.224;8.482;2023-05-10T16:31:05;15.38;;;9.73;;
32505;SDS011;18955;51.224;8.482;2023-05-10T16:33:32;14.90;;;9.48;;
32505;SDS011;18955;51.224;8.482;2023-05-10T16:35:58;14.98;;;9.23;;
32505;SDS011;18955;51.224;8.482;2023-05-10T16:38:24;14.85;;;9.60;;
32505;SDS011;18955;51.224;8.482;2023-05-10T16:40:51;14.90;;;10.00;;
32505;SDS011;18955;51.224;8.482;2023-05-10T16:43:17;10.90;;;7.07;;
32505;SDS011;18955;51.224;8.482;2023-05-10T16:45:43;17.02;;;9.80;;
32505;SDS011;18955;51.224;8.482;2023-05-10T16:48:10;14.43;;;9.30;;
32505;SDS011;18955;51.224;8.482;2023-05-10T16:50:36;14.32;;;9.18;;
32505;SDS011;18955;51.224;8.482;2023-05-10T16:53:02;15.10;;;9.65;;
32505;SDS011;18955;51.224;8.482;2023-05-10T16:55:28;12.98;;;8.82;;
32505;SDS011;18955;51.224;8.482;2023-05-10T16:57:55;13.77;;;9.38;;
32505;SDS011;18955;51.224;8.482;2023-05-10T17:00:27;15.07;;;9.02;;
32505;SDS011;18955;51.224;8.482;2023-05-10T17:02:53;14.18;;;8.07;;
32505;SDS011;18955;51.224;8.482;2023-05-10T17:05:20;13.68;;;8.65;;
32505;SDS011;18955;51.224;8.482;2023-05-10T17:10:13;14.40;;;9.35;;
32505;SDS011;18955;51.224;8.482;2023-05-10T17:12:40;13.20;;;9.40;;
32505;SDS011;18955;51.224;8.482;2023-05-10T17:15:07;14.82;;;9.30;;
32505;SDS011;18955;51.224;8.482;2023-05-10T17:17:34;15.23;;;8.75;;
32505;SDS011;18955;51.224;8.482;2023-05-10T17:20:00;12.48;;;8.30;;
32505;SDS011;18955;51.224;8.482;2023-05-10T17:22:27;13.50;;;8.20;;
32505;SDS011;18955;51.224;8.482;2023-05-10T17:24:53;8.95;;;5.47;;
32505;SDS011;18955;51.224;8.482;2023-05-10T17:27:19;11.57;;;7.07;;
32505;SDS011;18955;51.224;8.482;2023-05-10T17:29:46;12.63;;;7.22;;
32505;SDS011;18955;51.224;8.482;2023-05-10T17:32:12;6.70;;;4.53;;
32505;SDS011;18955;51.224;8.482;2023-05-10T17:34:38;8.70;;;5.82;;
32505;SDS011;18955;51.224;8.482;2023-05-10T17:37:04;9.30;;;6.35;;
32505;SDS011;18955;51.224;8.482;2023-05-10T17:39:32;10.15;;;5.95;;
32505;SDS011;18955;51.224;8.482;2023-05-10T17:41:59;7.50;;;5.32;;
32505;SDS011;18955;51.224;8.482;2023-05-10T17:44:25;9.13;;;5.53;;
32505;SDS011;18955;51.224;8.482;2023-05-10T17:46:51;6.72;;;5.18;;
32505;SDS011;18955;51.224;8.482;2023-05-10T17:49:18;8.18;;;5.20;;
32505;SDS011;18955;51.224;8.482;2023-05-10T17:51:44;7.80;;;5.32;;
32505;SDS011;18955;51.224;8.482;2023-05-10T17:54:13;8.45;;;4.65;;
32505;SDS011;18955;51.224;8.482;2023-05-10T17:56:39;9.10;;;4.47;;
32505;SDS011;18955;51.224;8.482;2023-05-10T17:59:06;8.07;;;5.45;;
32505;SDS011;18955;51.224;8.482;2023-05-10T18:01:32;5.47;;;4.15;;
32505;SDS011;18955;51.224;8.482;2023-05-10T18:03:59;9.27;;;4.97;;
32505;SDS011;18955;51.224;8.482;2023-05-10T18:06:25;4.35;;;3.33;;
32505;SDS011;18955;51.224;8.482;2023-05-10T18:08:51;11.00;;;4.78;;
32505;SDS011;18955;51.224;8.482;2023-05-10T18:11:18;6.30;;;3.22;;
32505;SDS011;18955;51.224;8.482;2023-05-10T18:13:44;8.10;;;4.50;;
32505;SDS011;18955;51.224;8.482;2023-05-10T18:16:10;6.50;;;4.03;;
32505;SDS011;18955;51.224;8.482;2023-05-10T18:18:37;6.53;;;4.65;;
32505;SDS011;18955;51.224;8.482;2023-05-10T18:21:04;6.78;;;4.47;;
32505;SDS011;18955;51.224;8.482;2023-05-10T18:23:30;9.00;;;4.05;;
32505;SDS011;18955;51.224;8.482;2023-05-10T18:25:56;8.90;;;3.90;;
32505;SDS011;18955;51.224;8.482;2023-05-10T18:28:22;8.82;;;5.00;;
32505;SDS011;18955;51.224;8.482;2023-05-10T18:30:49;9.50;;;4.60;;
32505;SDS011;18955;51.224;8.482;2023-05-10T18:33:15;10.60;;;5.43;;
32505;SDS011;18955;51.224;8.482;2023-05-10T18:35:42;10.93;;;4.90;;
32505;SDS011;18955;51.224;8.482;2023-05-10T18:38:08;7.53;;;5.05;;
32505;SDS011;18955;51.224;8.482;2023-05-10T18:40:35;7.63;;;5.13;;
32505;SDS011;18955;51.224;8.482;2023-05-10T18:43:01;9.77;;;5.15;;
32505;SDS011;18955;51.224;8.482;2023-05-10T18:45:28;6.88;;;4.70;;
32505;SDS011;18955;51.224;8.482;2023-05-10T18:47:55;10.07;;;5.60;;
32505;SDS011;18955;51.224;8.482;2023-05-10T18:50:21;9.95;;;5.53;;
32505;SDS011;18955;51.224;8.482;2023-05-10T18:52:47;8.18;;;4.88;;
32505;SDS011;18955;51.224;8.482;2023-05-10T18:55:15;13.40;;;4.90;;
32505;SDS011;18955;51.224;8.482;2023-05-10T18:57:41;7.95;;;5.30;;
32505;SDS011;18955;51.224;8.482;2023-05-10T19:00:08;14.27;;;5.00;;
32505;SDS011;18955;51.224;8.482;2023-05-10T19:02:37;7.25;;;4.80;;
32505;SDS011;18955;51.224;8.482;2023-05-10T19:05:04;6.95;;;4.60;;
32505;SDS011;18955;51.224;8.482;2023-05-10T19:07:31;8.52;;;4.63;;
32505;SDS011;18955;51.224;8.482;2023-05-10T19:09:57;8.13;;;4.68;;
32505;SDS011;18955;51.224;8.482;2023-05-10T19:12:23;6.22;;;4.85;;
32505;SDS011;18955;51.224;8.482;2023-05-10T19:14:50;8.55;;;4.60;;
32505;SDS011;18955;51.224;8.482;2023-05-10T19:17:16;6.25;;;4.82;;
32505;SDS011;18955;51.224;8.482;2023-05-10T19:19:42;11.07;;;5.18;;
32505;SDS011;18955;51.224;8.482;2023-05-10T19:22:09;11.13;;;5.35;;
32505;SDS011;18955;51.224;8.482;2023-05-10T19:24:35;8.88;;;5.15;;
32505;SDS011;18955;51.224;8.482;2023-05-10T19:27:01;9.43;;;5.90;;